createdAt,value
2022-10-22T00:01:38.975Z,94555.34
2022-10-22T00:04:06.128Z,94561.47
2022-10-22T00:06:33.210Z,94568.16
2022-10-22T00:09:00.188Z,94568.97
2022-10-22T00:11:26.763Z,94584.97
2022-10-22T00:13:53.253Z,94577.75
2022-10-22T00:16:19.627Z,94574.56
2022-10-22T00:18:46.044Z,94586.31
2022-10-22T00:21:12.897Z,94583.38
2022-10-22T00:23:42.853Z,94588.69
2022-10-22T00:26:10.356Z,94588.16
2022-10-22T00:28:37.028Z,94584.97
2022-10-22T00:31:03.669Z,94598.31
2022-10-22T00:33:30.957Z,94600.94
2022-10-22T00:35:57.772Z,94601.19
2022-10-22T00:38:24.239Z,94607.13
2022-10-22T00:40:50.803Z,94618.84
2022-10-22T00:43:19.711Z,94615.66
2022-10-22T00:45:46.606Z,94613.53
2022-10-22T00:48:14.816Z,94606.31
2022-10-22T00:50:45.824Z,94612.44
2022-10-22T00:53:19.408Z,94619.13
2022-10-22T00:55:49.238Z,94621.00
2022-10-22T00:58:16.249Z,94613.53
2022-10-22T01:00:43.099Z,94626.06
2022-10-22T01:03:09.709Z,94622.06
2022-10-22T01:05:44.311Z,94624.19
2022-10-22T01:08:25.492Z,94625.00
2022-10-22T01:11:07.983Z,94634.59
2022-10-22T01:13:58.589Z,94632.72
2022-10-22T01:16:55.559Z,94637.13
2022-10-22T01:19:40.175Z,94642.81
2022-10-22T01:22:18.963Z,94646.53
2022-10-22T01:25:21.203Z,94654.00
2022-10-22T01:27:55.670Z,94650.28
2022-10-22T01:30:22.752Z,94657.75
2022-10-22T01:32:52.939Z,94655.59
2022-10-22T01:35:25.372Z,94668.69
2022-10-22T01:37:58.681Z,94670.16
2022-10-22T01:40:26.188Z,94670.38
2022-10-22T01:42:57.419Z,94661.44
2022-10-22T01:45:23.940Z,94645.97
2022-10-22T01:48:00.490Z,94637.53
2022-10-22T01:50:56.044Z,94636.56
2022-10-22T01:53:32.406Z,94648.97
2022-10-22T01:56:29.322Z,94639.22
2022-10-22T01:59:08.187Z,94638.88
2022-10-22T02:02:03.944Z,94651.28
2022-10-22T02:04:41.057Z,94654.53
2022-10-22T02:07:11.435Z,94662.53
2022-10-22T02:09:40.350Z,94674.25
2022-10-22T02:12:09.125Z,94677.22
2022-10-22T02:14:41.326Z,94682.53
2022-10-22T02:17:13.059Z,94691.34
2022-10-22T02:19:53.779Z,94702.53
2022-10-22T02:22:20.496Z,94710.28
2022-10-22T02:24:48.667Z,94716.41
2022-10-22T02:27:31.836Z,94718.03
2022-10-22T02:29:58.197Z,94730.81
2022-10-22T02:32:30.323Z,94738.81
2022-10-22T02:34:57.388Z,94750.03
2022-10-22T02:37:25.571Z,94760.94
2022-10-22T02:39:52.983Z,94768.16
2022-10-22T02:42:19.535Z,94800.69
2022-10-22T02:44:45.933Z,94793.75
2022-10-22T02:47:12.371Z,94781.78
2022-10-22T02:49:38.760Z,94794.78
2022-10-22T02:52:05.302Z,94774.63
2022-10-22T02:54:31.831Z,94768.56
2022-10-22T02:56:58.206Z,94779.13
2022-10-22T02:59:24.650Z,94785.09
2022-10-22T03:01:51.084Z,94768.75
2022-10-22T03:04:17.520Z,94774.25
2022-10-22T03:06:44.635Z,94764.59
2022-10-22T03:09:11.256Z,94765.38
2022-10-22T03:11:37.765Z,94773.44
2022-10-22T03:14:04.187Z,94772.09
2022-10-22T03:16:30.611Z,94770.50
2022-10-22T03:18:57.118Z,94780.91
2022-10-22T03:21:34.250Z,94780.41
2022-10-22T03:24:05.725Z,94786.25
2022-10-22T03:26:32.734Z,94779.84
2022-10-22T03:29:00.816Z,94785.44
2022-10-22T03:31:27.229Z,94793.72
2022-10-22T03:33:53.838Z,94807.06
2022-10-22T03:36:20.353Z,94795.59
2022-10-22T03:38:47.252Z,94804.13
2022-10-22T03:41:13.858Z,94807.84
2022-10-22T03:43:41.100Z,94797.22
2022-10-22T03:46:07.872Z,94799.88
2022-10-22T03:48:34.314Z,94803.59
2022-10-22T03:51:00.761Z,94807.34
2022-10-22T03:53:27.189Z,94802.53
2022-10-22T03:55:53.604Z,94796.94
2022-10-22T03:58:20.051Z,94804.91
2022-10-22T04:00:46.551Z,94805.19
2022-10-22T04:03:12.989Z,94802.78
2022-10-22T04:05:39.428Z,94797.19
2022-10-22T04:08:05.924Z,94787.84
2022-10-22T04:10:32.412Z,94791.84
2022-10-22T04:12:58.856Z,94791.03
2022-10-22T04:15:28.075Z,94783.03
2022-10-22T04:17:55.343Z,94782.97
2022-10-22T04:20:21.761Z,94776.94
2022-10-22T04:22:48.211Z,94774.72
2022-10-22T04:25:14.692Z,94767.03
2022-10-22T04:27:41.238Z,94755.06
2022-10-22T04:30:08.533Z,94746.25
2022-10-22T04:32:35.008Z,94753.44
2022-10-22T04:35:01.467Z,94754.50
2022-10-22T04:37:27.853Z,94743.28
2022-10-22T04:39:54.281Z,94749.69
2022-10-22T04:42:20.672Z,94744.88
2022-10-22T04:44:47.097Z,94736.38
2022-10-22T04:47:13.480Z,94748.88
2022-10-22T04:49:40.389Z,94740.91
2022-10-22T04:52:06.839Z,94740.38
2022-10-22T04:54:33.339Z,94746.50
2022-10-22T04:56:59.888Z,94740.88
2022-10-22T04:59:26.483Z,94757.16
2022-10-22T05:01:52.914Z,94752.84
2022-10-22T05:04:19.712Z,94755.38
2022-10-22T05:06:47.063Z,94758.34
2022-10-22T05:09:16.259Z,94755.59
2022-10-22T05:11:48.689Z,94754.97
2022-10-22T05:14:17.912Z,94753.41
2022-10-22T05:19:18.007Z,94743.81
2022-10-22T05:21:44.676Z,94740.59
2022-10-22T05:24:11.617Z,94745.16
2022-10-22T05:26:38.024Z,94732.34
2022-10-22T05:29:04.421Z,94733.13
2022-10-22T05:31:30.815Z,94727.31
2022-10-22T05:33:57.334Z,94734.09
2022-10-22T05:36:23.900Z,94735.00
2022-10-22T05:38:50.865Z,94735.81
2022-10-22T05:41:25.320Z,94740.06
2022-10-22T05:43:54.083Z,94739.53
2022-10-22T05:46:23.260Z,94739.25
2022-10-22T05:48:51.148Z,94752.31
2022-10-22T05:51:18.523Z,94750.47
2022-10-22T05:53:45.491Z,94753.13
2022-10-22T05:56:14.408Z,94768.84
2022-10-22T05:58:41.888Z,94767.75
2022-10-22T06:01:12.999Z,94760.31
2022-10-22T06:03:39.531Z,94767.00
2022-10-22T06:06:17.894Z,94771.53
2022-10-22T06:08:46.217Z,94780.84
2022-10-22T06:11:13.267Z,94783.78
2022-10-22T06:13:39.711Z,94786.00
2022-10-22T06:16:06.269Z,94795.72
2022-10-22T06:18:33.697Z,94812.06
2022-10-22T06:21:12.567Z,94819.13
2022-10-22T06:23:40.226Z,94829.94
2022-10-22T06:26:07.618Z,94817.44
2022-10-22T06:28:34.316Z,94823.34
2022-10-22T06:31:02.349Z,94832.09
2022-10-22T06:33:29.664Z,94843.38
2022-10-22T06:36:06.769Z,94847.03
2022-10-22T06:38:34.229Z,94846.09
2022-10-22T06:41:06.036Z,94865.13
2022-10-22T06:43:32.430Z,94865.75
2022-10-22T06:46:03.767Z,94876.97
2022-10-22T06:48:30.590Z,94868.75
2022-10-22T06:51:01.862Z,94884.63
2022-10-22T06:53:28.407Z,94876.66
2022-10-22T06:55:54.810Z,94875.34
2022-10-22T06:58:21.491Z,94883.59
2022-10-22T07:00:47.896Z,94885.75
2022-10-22T07:03:15.743Z,94888.94
2022-10-22T07:05:42.376Z,94885.44
2022-10-22T07:08:08.903Z,94881.28
2022-10-22T07:10:35.388Z,94887.09
2022-10-22T07:13:01.762Z,94885.53
2022-10-22T07:15:28.245Z,94894.59
2022-10-22T07:17:54.656Z,94893.78
2022-10-22T07:20:21.650Z,94898.56
2022-10-22T07:22:48.080Z,94892.75
2022-10-22T07:25:14.542Z,94890.56
2022-10-22T07:27:41.139Z,94896.16
2022-10-22T07:30:08.592Z,94900.63
2022-10-22T07:32:34.977Z,94891.88
2022-10-22T07:35:01.400Z,94892.75
2022-10-22T07:37:27.769Z,94905.94
2022-10-22T07:39:54.200Z,94908.34
2022-10-22T07:42:20.683Z,94907.28
2022-10-22T07:44:47.227Z,94912.91
2022-10-22T07:47:13.614Z,94913.44
2022-10-22T07:49:40.093Z,94917.41
2022-10-22T07:52:08.077Z,94930.78
2022-10-22T07:54:34.511Z,94924.91
2022-10-22T07:57:01.089Z,94931.00
2022-10-22T07:59:27.525Z,94937.66
2022-10-22T08:01:53.912Z,94945.66
2022-10-22T08:04:20.348Z,94937.84
2022-10-22T08:06:47.458Z,94950.84
2022-10-22T08:09:14.654Z,94949.28
2022-10-22T08:11:41.099Z,94965.03
2022-10-22T08:14:07.574Z,94958.97
2022-10-22T08:16:34.048Z,94973.19
2022-10-22T08:19:00.440Z,94971.94
2022-10-22T08:21:26.867Z,94977.25
2022-10-22T08:23:53.399Z,94977.59
2022-10-22T08:26:19.880Z,94981.59
2022-10-22T08:28:46.335Z,94987.47
2022-10-22T08:31:12.852Z,94986.41
2022-10-22T08:33:39.704Z,94987.97
2022-10-22T08:36:06.808Z,94986.63
2022-10-22T08:38:33.419Z,94985.19
2022-10-22T08:41:08.987Z,94984.66
2022-10-22T08:43:44.293Z,94976.31
2022-10-22T08:46:48.006Z,94974.06
2022-10-22T08:49:22.745Z,94965.34
2022-10-22T08:51:49.460Z,94968.69
2022-10-22T08:54:43.799Z,94972.63
2022-10-22T08:57:27.600Z,94979.09
2022-10-22T09:00:02.592Z,94968.00
2022-10-22T09:02:39.984Z,94972.47
2022-10-22T09:05:11.622Z,94980.50
2022-10-22T09:07:43.549Z,94975.41
2022-10-22T09:10:12.861Z,94977.28
2022-10-22T09:12:39.359Z,94983.66
2022-10-22T09:15:06.162Z,94991.38
2022-10-22T09:17:41.481Z,94997.53
2022-10-22T09:20:26.310Z,95003.31
2022-10-22T09:23:03.454Z,95001.53
2022-10-22T09:25:33.662Z,94998.63
2022-10-22T09:28:00.133Z,95007.31
2022-10-22T09:30:29.865Z,94997.75
2022-10-22T09:33:06.422Z,95008.28
2022-10-22T09:35:58.133Z,95001.41
2022-10-22T09:38:31.547Z,94994.59
2022-10-22T09:41:00.563Z,95004.59
2022-10-22T09:43:27.142Z,95015.53
2022-10-22T09:46:00.096Z,95018.75
2022-10-22T09:48:39.259Z,95014.00
2022-10-22T09:51:15.442Z,95017.19
2022-10-22T09:53:44.353Z,95016.59
2022-10-22T09:56:23.769Z,95008.34
2022-10-22T09:58:51.809Z,95014.78
2022-10-22T10:01:25.524Z,95011.63
2022-10-22T10:03:52.372Z,95008.88
2022-10-22T10:06:23.367Z,95003.75
2022-10-22T10:08:50.306Z,94994.50
2022-10-22T10:11:29.052Z,94997.75
2022-10-22T10:14:10.016Z,95000.78
2022-10-22T10:16:59.119Z,94998.03
2022-10-22T10:19:41.002Z,94993.22
2022-10-22T10:22:29.173Z,94998.31
2022-10-22T10:25:11.084Z,95001.97
2022-10-22T10:27:47.723Z,95009.75
2022-10-22T10:30:18.692Z,94999.31
2022-10-22T10:32:55.092Z,95002.25
2022-10-22T10:35:47.952Z,95003.75
2022-10-22T10:38:33.603Z,95008.34
2022-10-22T10:41:19.864Z,95007.81
2022-10-22T10:44:00.320Z,95010.31
2022-10-22T10:46:44.756Z,95005.72
2022-10-22T10:49:19.647Z,95005.31
2022-10-22T10:52:04.649Z,95008.06
2022-10-22T10:55:11.892Z,95002.19
2022-10-22T10:57:41.415Z,94997.84
2022-10-22T11:00:15.850Z,95002.66
2022-10-22T11:03:18.103Z,95001.66
2022-10-22T11:06:09.088Z,95000.31
2022-10-22T11:08:45.346Z,95006.69
2022-10-22T11:11:46.738Z,95009.63
2022-10-22T11:14:24.226Z,95003.47
2022-10-22T11:17:03.687Z,95012.91
2022-10-22T11:19:51.588Z,95004.66
2022-10-22T11:22:28.310Z,95002.97
2022-10-22T11:25:03.983Z,94998.91
2022-10-22T11:27:45.874Z,94999.72
2022-10-22T11:30:18.511Z,95008.34
2022-10-22T11:32:49.732Z,95016.03
2022-10-22T11:35:24.855Z,95014.34
2022-10-22T11:37:55.597Z,95014.69
2022-10-22T11:40:30.778Z,95010.63
2022-10-22T11:42:59.554Z,95017.41
2022-10-22T11:45:25.964Z,95013.13
2022-10-22T11:48:07.724Z,95016.78
2022-10-22T11:50:57.542Z,95014.78
2022-10-22T11:53:31.466Z,95007.72
2022-10-22T11:56:04.612Z,95009.38
2022-10-22T11:58:39.173Z,95013.16
2022-10-22T12:01:08.562Z,95004.88
2022-10-22T12:03:34.911Z,95013.66
2022-10-22T12:06:15.273Z,95009.53
2022-10-22T12:08:54.433Z,95016.19
2022-10-22T12:11:22.341Z,95017.38
2022-10-22T12:14:00.941Z,95016.31
2022-10-22T12:16:54.525Z,95018.91
2022-10-22T12:19:22.880Z,95017.88
2022-10-22T12:21:52.372Z,95015.25
2022-10-22T12:24:19.728Z,95009.31
2022-10-22T12:26:47.005Z,95013.91
2022-10-22T12:29:16.712Z,95004.50
2022-10-22T12:31:44.671Z,95007.16
2022-10-22T12:34:17.865Z,94999.16
2022-10-22T12:36:46.544Z,95001.09
2022-10-22T12:39:19.022Z,94995.13
2022-10-22T12:41:46.499Z,94988.94
2022-10-22T12:44:15.899Z,94990.06
2022-10-22T12:46:44.235Z,94987.06
2022-10-22T12:49:18.851Z,94986.16
2022-10-22T12:51:46.868Z,94984.69
2022-10-22T12:54:28.679Z,94989.03
2022-10-22T12:56:56.423Z,94991.09
2022-10-22T12:59:29.837Z,94982.53
2022-10-22T13:01:56.960Z,94987.34
2022-10-22T13:04:26.631Z,94983.91
2022-10-22T13:07:04.568Z,94985.25
2022-10-22T13:09:38.351Z,94977.91
2022-10-22T13:12:06.973Z,94978.28
2022-10-22T13:14:39.124Z,94975.81
2022-10-22T13:17:08.925Z,94980.31
2022-10-22T13:19:41.219Z,94977.63
2022-10-22T13:22:26.247Z,94973.59
2022-10-22T13:24:53.242Z,94974.28
2022-10-22T13:27:20.306Z,94966.28
2022-10-22T13:29:46.835Z,94968.69
2022-10-22T13:32:40.032Z,94969.47
2022-10-22T13:35:06.806Z,94970.25
2022-10-22T13:37:34.266Z,94964.38
2022-10-22T13:40:00.688Z,94959.19
2022-10-22T13:42:27.132Z,94961.19
2022-10-22T13:44:53.526Z,94963.78
2022-10-22T13:47:29.551Z,94972.56
2022-10-22T13:49:59.577Z,94967.06
2022-10-22T13:52:29.191Z,94968.38
2022-10-22T13:54:55.685Z,94970.44
2022-10-22T13:57:22.091Z,94972.31
2022-10-22T13:59:48.617Z,94970.69
2022-10-22T14:02:16.421Z,94969.91
2022-10-22T14:04:43.247Z,94969.13
2022-10-22T14:07:18.747Z,94962.69
2022-10-22T14:09:45.385Z,94963.50
2022-10-22T14:12:16.891Z,94973.94
2022-10-22T14:14:43.486Z,94967.25
2022-10-22T14:54:28.608Z,94993.66
2022-10-22T14:56:55.017Z,94996.06
2022-10-22T14:59:21.462Z,94999.00
2022-10-22T15:01:47.907Z,94997.94
2022-10-22T15:04:14.305Z,94997.94
2022-10-22T15:06:40.758Z,94993.38
2022-10-22T15:09:07.280Z,94995.81
2022-10-22T15:11:33.904Z,94994.72
2022-10-22T15:14:00.330Z,95004.34
2022-10-22T15:16:26.797Z,95006.72
2022-10-22T15:18:53.366Z,95003.00
2022-10-22T15:21:22.078Z,95009.66
2022-10-22T15:23:49.540Z,95006.44
2022-10-22T15:26:16.170Z,95000.31
2022-10-22T15:28:43.266Z,95004.84
2022-10-22T15:31:13.141Z,95014.72
2022-10-22T15:33:41.537Z,95009.91
2022-10-22T15:36:13.851Z,95004.81
2022-10-22T15:38:40.561Z,95011.22
2022-10-22T15:41:10.109Z,94998.13
2022-10-22T15:43:37.087Z,95009.09
2022-10-22T15:46:13.190Z,95009.34
2022-10-22T15:48:39.905Z,95018.16
2022-10-22T15:51:11.548Z,95022.47
2022-10-22T15:53:38.126Z,95023.78
2022-10-22T15:56:04.988Z,95018.97
2022-10-22T15:58:31.716Z,95025.09
2022-10-22T16:01:09.410Z,95034.97
2022-10-22T16:03:36.503Z,95042.44
2022-10-22T16:06:04.033Z,95052.06
2022-10-22T16:08:30.530Z,95051.00
2022-10-22T16:10:56.971Z,95051.00
2022-10-22T16:13:24.780Z,95050.19
2022-10-22T16:15:51.585Z,95051.53
2022-10-22T16:18:18.731Z,95062.47
2022-10-22T16:20:45.300Z,95051.53
2022-10-22T16:23:12.224Z,95049.41
2022-10-22T16:25:42.218Z,95059.28
2022-10-22T16:28:09.876Z,95064.06
2022-10-22T16:30:37.424Z,95067.00
2022-10-22T16:33:06.246Z,95069.41
2022-10-22T16:35:32.981Z,95069.13
2022-10-22T16:37:59.751Z,95069.41
2022-10-22T16:40:26.903Z,95076.06
2022-10-22T16:42:53.328Z,95067.50
2022-10-22T16:45:19.709Z,95071.28
2022-10-22T16:47:47.916Z,95076.06
2022-10-22T16:50:14.737Z,95074.72
2022-10-22T16:52:41.175Z,95072.31
2022-10-22T16:55:08.008Z,95078.44
2022-10-22T16:57:35.808Z,95077.09
2022-10-22T17:00:03.936Z,95083.53
2022-10-22T17:02:30.397Z,95089.66
2022-10-22T17:04:56.830Z,95087.50
2022-10-22T17:07:23.277Z,95091.00
2022-10-22T17:09:49.707Z,95095.25
2022-10-22T17:12:16.218Z,95092.84
2022-10-22T17:14:42.640Z,95092.03
2022-10-22T17:17:09.007Z,95095.25
2022-10-22T17:19:38.770Z,95091.00
2022-10-22T17:22:05.542Z,95099.75
2022-10-22T17:24:32.052Z,95104.03
2022-10-22T17:26:58.957Z,95101.38
2022-10-22T17:29:25.477Z,95092.00
2022-10-22T17:31:52.531Z,95094.94
2022-10-22T17:34:18.954Z,95104.56
2022-10-22T17:36:45.611Z,95110.97
2022-10-22T17:39:17.220Z,95101.91
2022-10-22T17:41:43.799Z,95115.91
2022-10-22T17:44:12.213Z,95122.03
2022-10-22T17:46:38.945Z,95125.84
2022-10-22T17:49:09.587Z,95131.25
2022-10-22T17:51:36.021Z,95127.66
2022-10-22T17:54:04.672Z,95130.88
2022-10-22T17:56:33.932Z,95135.72
2022-10-22T17:59:01.580Z,95131.97
2022-10-22T18:01:31.449Z,95137.53
2022-10-22T18:04:03.589Z,95138.59
2022-10-22T18:06:30.540Z,95140.19
2022-10-22T18:08:57.023Z,95132.44
2022-10-22T18:11:26.098Z,95135.38
2022-10-22T18:13:54.967Z,95136.97
2022-10-22T18:16:21.772Z,95133.28
2022-10-22T18:18:49.536Z,95143.50
2022-10-22T18:21:16.956Z,95134.31
2022-10-22T18:23:43.446Z,95132.72
2022-10-22T18:26:09.848Z,95129.78
2022-10-22T18:28:36.732Z,95127.84
2022-10-22T18:31:08.336Z,95129.47
2022-10-22T18:33:36.840Z,95138.66
2022-10-22T18:36:05.880Z,95137.63
2022-10-22T18:38:32.776Z,95139.47
2022-10-22T18:40:59.962Z,95136.28
2022-10-22T18:43:26.701Z,95131.25
2022-10-22T18:45:53.102Z,95136.16
2022-10-22T18:48:22.869Z,95133.25
2022-10-22T18:50:59.343Z,95111.41
2022-10-22T18:53:25.907Z,95120.84
2022-10-22T18:55:52.391Z,95123.94
2022-10-22T18:58:18.826Z,95124.09
2022-10-22T19:00:45.389Z,95124.69
2022-10-22T19:03:14.351Z,95115.94
2022-10-22T19:05:48.760Z,95116.53
2022-10-22T19:08:18.156Z,95106.88
2022-10-22T19:10:45.336Z,95114.03
2022-10-22T19:13:16.604Z,95118.59
2022-10-22T19:15:43.106Z,95110.31
2022-10-22T19:18:09.886Z,95115.09
2022-10-22T19:20:36.936Z,95101.50
2022-10-22T19:23:03.629Z,95109.78
2022-10-22T19:25:30.068Z,95111.09
2022-10-22T19:27:56.527Z,95110.81
2022-10-22T19:30:24.064Z,95105.78
2022-10-22T19:32:50.504Z,95107.88
2022-10-22T19:35:17.629Z,95104.38
2022-10-22T19:37:48.258Z,95112.16
2022-10-22T19:40:15.224Z,95116.22
2022-10-22T19:42:44.255Z,95119.28
2022-10-22T19:45:11.162Z,95110.44
2022-10-22T19:47:37.572Z,95113.94
2022-10-22T19:50:04.324Z,95119.53
2022-10-22T19:52:30.782Z,95111.19
2022-10-22T19:54:57.198Z,95109.03
2022-10-22T19:57:23.575Z,95106.94
2022-10-22T19:59:50.860Z,95113.59
2022-10-22T20:02:18.565Z,95122.25
2022-10-22T20:04:49.209Z,95113.75
2022-10-22T20:07:16.750Z,95114.97
2022-10-22T20:09:43.233Z,95114.66
2022-10-22T20:12:09.652Z,95108.69
2022-10-22T20:14:36.125Z,95116.94
2022-10-22T20:17:02.576Z,95114.31
2022-10-22T20:19:29.779Z,95117.06
2022-10-22T20:21:56.347Z,95113.09
2022-10-22T20:24:22.961Z,95109.72
2022-10-22T20:26:49.472Z,95116.88
2022-10-22T20:29:16.199Z,95114.06
2022-10-22T20:31:42.982Z,95120.56
2022-10-22T20:34:09.795Z,95117.34
2022-10-22T20:36:36.295Z,95119.16
2022-10-22T20:39:08.396Z,95120.47
2022-10-22T20:41:37.656Z,95118.91
2022-10-22T20:44:04.229Z,95114.94
2022-10-22T20:46:32.123Z,95119.28
2022-10-22T20:49:04.967Z,95115.13
2022-10-22T20:51:31.800Z,95120.97
2022-10-22T20:53:58.695Z,95112.47
2022-10-22T20:56:25.646Z,95117.59
2022-10-22T20:59:03.762Z,95104.91
2022-10-22T21:01:34.283Z,95116.78
2022-10-22T21:04:00.665Z,95119.38
2022-10-22T21:06:27.277Z,95120.78
2022-10-22T21:08:53.811Z,95112.91
2022-10-22T21:11:21.007Z,95113.06
2022-10-22T21:13:47.448Z,95121.91
2022-10-22T21:16:16.945Z,95113.66
2022-10-22T21:18:43.364Z,95105.41
2022-10-22T21:21:11.640Z,95099.91
2022-10-22T21:23:38.349Z,95108.66
2022-10-22T21:26:05.877Z,95106.66
2022-10-22T21:28:35.542Z,95110.44
2022-10-22T21:31:07.663Z,95104.91
2022-10-22T21:33:38.500Z,95105.06
2022-10-22T21:36:06.624Z,95099.69
2022-10-22T21:38:33.239Z,95100.34
2022-10-22T21:41:05.107Z,95109.09
2022-10-22T21:43:31.537Z,95098.56
2022-10-22T21:46:24.961Z,95098.06
2022-10-22T21:48:56.276Z,95094.59
2022-10-22T21:51:24.807Z,95092.94
2022-10-22T21:56:35.172Z,95101.78
2022-10-22T21:59:06.040Z,95093.25
2022-10-22T22:01:32.949Z,95084.41
2022-10-22T22:03:59.528Z,95086.00
2022-10-22T22:06:30.725Z,95104.00
2022-10-22T22:08:58.913Z,95092.41
2022-10-22T22:11:27.176Z,95083.59
2022-10-22T22:13:55.295Z,95087.81
2022-10-22T22:16:28.154Z,95086.53
2022-10-22T22:18:59.035Z,95094.72
2022-10-22T22:21:26.006Z,95089.91
2022-10-22T22:23:52.490Z,95088.75
2022-10-22T22:26:25.369Z,95087.50
2022-10-22T22:28:55.417Z,95083.69
2022-10-22T22:31:30.585Z,95088.72
2022-10-22T22:34:10.124Z,95087.81
2022-10-22T22:36:37.992Z,95082.41
2022-10-22T22:39:10.563Z,95085.88
2022-10-22T22:41:37.029Z,95085.50
2022-10-22T22:44:03.891Z,95077.16
2022-10-22T22:46:30.310Z,95072.81
2022-10-22T22:48:56.802Z,95065.38
2022-10-22T22:51:23.504Z,95071.59
2022-10-22T22:53:50.103Z,95060.38
2022-10-22T22:56:25.938Z,95058.28
2022-10-22T22:58:52.644Z,95069.00
2022-10-22T23:01:21.024Z,95062.31
2022-10-22T23:03:52.591Z,95055.88
2022-10-22T23:06:19.099Z,95047.44
2022-10-22T23:08:49.366Z,95059.38
2022-10-22T23:11:16.071Z,95054.19
2022-10-22T23:13:43.063Z,95057.72
2022-10-22T23:16:19.267Z,95054.00
2022-10-22T23:18:47.633Z,95050.06
2022-10-22T23:21:17.385Z,95052.38
2022-10-22T23:23:49.512Z,95060.50
2022-10-22T23:26:20.363Z,95053.31
2022-10-22T23:28:46.831Z,95049.50
2022-10-22T23:31:15.175Z,95047.47
2022-10-22T23:33:42.855Z,95041.31
2022-10-22T23:36:10.412Z,95034.75
2022-10-22T23:38:38.817Z,95023.44
2022-10-22T23:41:05.820Z,95027.94
2022-10-22T23:43:36.042Z,95026.22
2022-10-22T23:46:06.524Z,95026.25
2022-10-22T23:48:33.345Z,95031.88
2022-10-22T23:51:12.900Z,95016.75
2022-10-22T23:53:39.854Z,95026.75
2022-10-22T23:56:08.476Z,95015.03
2022-10-22T23:58:35.420Z,95026.72
